Aviation Digital Data Service (ADDS)

Output produced by METARs form (2353 UTC 23 May 2022)
found at http://www.aviationweather.gov/metar/data/
 
LUKK 232330Z 22003KT CAVOK 08/07 Q1012 NOSIG
TAF LUKK 232320Z 2400/2424 VRB04KT CAVOK 
     TEMPO 2401/2404 4000 BR